Data for 06/27/2016

Time Sea-Level Adjusted Pressure Absolute Pressure Temperature Relative Humidity Dew Point   
(mb) (inHg) (mb) (inHg) (C) (F) (%) (C) (F)
00:05 1027 30.33 856 25.28 16.1 61 41 2.9 37.3
00:10 1027 30.33 856 25.28 16.1 60.9 41 2.8 37.1
00:15 1027 30.33 856 25.28 16 60.9 41 2.9 37.2
00:20 1027 30.33 856 25.28 16 60.7 41 2.9 37.2
00:25 1027 30.33 856 25.28 15.9 60.5 42 3 37.4
00:30 1027 30.33 856 25.28 15.8 60.4 42 3 37.5
00:35 1027 30.33 856 25.28 15.7 60.3 43 3.1 37.6
00:40 1027 30.33 856 25.28 15.6 60.1 43 3.1 37.5
00:45 1027 30.33 856 25.28 15.6 60 43 3 37.5
00:50 1027 30.33 856 25.28 15.6 60.1 43 3.2 37.7
00:55 1027 30.33 856 25.28 15.5 59.9 43 3.2 37.8
01:00 1027 30.33 856 25.28 15.5 59.9 44 3.3 38
01:05 1027 30.33 856 25.28 15.5 59.8 44 3.3 38
01:10 1027 30.33 856 25.28 15.4 59.7 44 3.4 38
01:15 1027 30.33 856 25.28 15.4 59.6 45 3.5 38.2
01:20 1027 30.33 856 25.28 15.3 59.5 45 3.5 38.2
01:25 1027 30.33 856 25.28 15.3 59.5 45 3.6 38.4
01:30 1027 30.33 856 25.28 15.2 59.4 46 3.7 38.6
01:35 1027 30.33 856 25.28 15.1 59.1 46 3.8 38.8
01:40 1027 30.33 857 25.31 14.9 58.9 47 3.7 38.7
01:45 1027 30.33 856 25.28 14.9 58.8 47 3.8 38.8
01:50 1027 30.33 856 25.28 14.9 58.7 47 3.8 38.9
01:55 1027 30.33 856 25.28 14.8 58.6 48 3.8 38.9
02:00 1027 30.33 856 25.28 14.8 58.6 48 3.9 38.9
02:05 1027 30.33 856 25.28 14.7 58.4 48 3.9 39.1
02:10 1027 30.33 857 25.31 14.6 58.2 49 3.9 39.1
02:15 1027 30.33 857 25.31 14.5 58 49 3.9 39.1
02:20 1027 30.33 857 25.31 14.4 58 49 3.9 39
02:25 1027 30.33 857 25.31 14.4 57.9 49 3.9 39.1
02:30 1027 30.33 857 25.31 14.4 57.8 50 4 39.2
02:35 1027 30.33 857 25.31 14.4 57.8 50 4.1 39.3
02:40 1027 30.33 857 25.31 14.3 57.7 50 4 39.3
02:45 1027 30.33 857 25.31 14.3 57.8 50 4.1 39.5
02:50 1027 30.33 857 25.31 14.2 57.6 50 4.1 39.4
02:55 1028 30.36 857 25.31 14.1 57.4 51 4.2 39.5
03:00 1027 30.33 857 25.31 14.1 57.4 51 4.1 39.4
03:05 1027 30.33 857 25.31 14 57.3 51 4.2 39.5
03:10 1027 30.33 857 25.31 14 57.2 52 4.3 39.7
03:15 1028 30.36 857 25.31 13.9 57 52 4.2 39.6
03:20 1028 30.36 857 25.31 13.9 56.9 52 4.2 39.6
03:25 1028 30.36 857 25.31 13.9 56.9 52 4.2 39.6
03:30 1028 30.36 857 25.31 13.8 56.8 52 4.2 39.6
03:35 1027 30.33 857 25.31 13.8 56.8 53 4.3 39.8
03:40 1027 30.33 857 25.31 13.8 56.8 52 4.2 39.6
03:45 1028 30.36 857 25.31 13.8 56.8 53 4.3 39.8
03:50 1028 30.36 857 25.31 13.8 56.8 53 4.3 39.8
03:55 1028 30.36 857 25.31 13.8 56.9 52 4.3 39.7
04:00 1028 30.36 857 25.31 13.8 56.8 53 4.4 39.8
04:05 1028 30.36 857 25.31 13.8 56.8 53 4.4 39.9
04:10 1028 30.36 857 25.31 13.7 56.6 53 4.4 39.9
04:15 1028 30.36 857 25.31 13.6 56.6 53 4.4 39.9
04:20 1028 30.36 857 25.31 13.6 56.5 54 4.5 40
04:25 1028 30.36 857 25.31 13.6 56.5 54 4.5 40
04:30 1028 30.36 857 25.31 13.7 56.6 53 4.5 40
04:35 1028 30.36 857 25.31 13.7 56.7 53 4.4 40
04:40 1028 30.36 857 25.31 13.8 56.9 53 4.5 40.1
04:45 1028 30.36 857 25.31 13.9 57 53 4.5 40.1
04:50 1028 30.36 857 25.31 13.9 57.1 53 4.5 40.1
04:55 1028 30.36 857 25.31 14 57.2 53 4.6 40.3
05:00 1028 30.36 857 25.31 13.9 57.1 53 4.6 40.3
05:05 1028 30.36 857 25.31 13.9 57.1 53 4.6 40.3
05:10 1028 30.36 857 25.31 14 57.2 53 4.6 40.3
05:15 1028 30.36 857 25.31 14 57.2 53 4.7 40.5
05:20 1028 30.36 857 25.31 14 57.1 53 4.7 40.4
05:25 1028 30.36 857 25.31 14 57.1 53 4.7 40.5
05:30 1028 30.36 857 25.31 14 57.1 53 4.7 40.4
05:35 1028 30.36 857 25.31 14.1 57.3 53 4.7 40.5
05:40 1028 30.36 857 25.31 14.1 57.3 53 4.8 40.6
05:45 1028 30.36 857 25.31 14.1 57.3 53 4.8 40.7
05:50 1028 30.36 857 25.31 14.1 57.4 53 4.8 40.7
05:55 1028 30.36 857 25.31 14.2 57.5 53 4.9 40.8
06:00 1028 30.36 857 25.31 14.3 57.8 53 5 41
06:05 1028 30.36 857 25.31 14.4 58 53 5 41.1
06:10 1028 30.36 857 25.31 14.5 58 53 5 41
06:15 1028 30.36 857 25.31 14.6 58.2 53 5.1 41.2
06:20 1028 30.36 857 25.31 14.8 58.6 52 5.2 41.4
06:25 1028 30.36 857 25.31 14.8 58.7 52 5.2 41.4
06:30 1028 30.36 857 25.31 15 58.9 52 5.3 41.5
06:35 1028 30.36 857 25.31 15.2 59.3 51 5.3 41.5
06:40 1028 30.36 857 25.31 15.3 59.5 51 5.4 41.7
06:45 1028 30.36 857 25.31 15.5 59.9 50 5.1 41.2
06:50 1028 30.36 857 25.31 15.6 60.1 50 5.2 41.3
06:55 1028 30.36 857 25.31 15.8 60.5 48 5.1 41.1
07:00 1028 30.36 857 25.31 15.9 60.7 48 5.1 41.2
07:05 1028 30.36 857 25.31 16.2 61.1 47 5.1 41.2
07:10 1028 30.36 857 25.31 16.1 61 48 5.1 41.1
07:15 1028 30.36 857 25.31 16.3 61.3 47 4.9 40.8
07:20 1028 30.36 857 25.31 16.4 61.5 46 5 40.9
07:25 1028 30.36 857 25.31 16.5 61.6 46 4.8 40.7
07:30 1028 30.36 857 25.31 16.6 61.8 45 4.8 40.7
07:35 1028 30.36 857 25.31 16.7 62 46 5.2 41.4
07:40 1028 30.36 857 25.31 16.7 62 45 4.8 40.6
07:45 1028 30.36 857 25.31 16.9 62.5 44 4.6 40.4
07:50 1028 30.36 857 25.31 17 62.7 45 5.2 41.3
07:55 1028 30.36 857 25.31 17.1 62.8 45 5.1 41.1
08:00 1028 30.36 857 25.31 17.6 63.6 44 5.2 41.3
08:05 1028 30.36 857 25.31 17.4 63.3 44 5.1 41.2
08:10 1028 30.36 857 25.31 17.6 63.7 43 5.1 41.3
08:15 1028 30.36 857 25.31 18.1 64.5 41 4.9 40.9
08:20 1028 30.36 857 25.31 18.1 64.6 41 4.7 40.5
08:25 1028 30.36 857 25.31 18.4 65.1 39 4.2 39.6
08:30 1028 30.36 857 25.31 18.5 65.3 37 3.8 38.9
08:35 1028 30.36 857 25.31 18.6 65.5 38 4.1 39.5
08:40 1028 30.36 857 25.31 18.9 65.9 38 4.2 39.6
08:45 1028 30.36 857 25.31 19 66.2 37 4.3 39.7
08:50 1028 30.36 857 25.31 19 66.1 37 4.1 39.4
08:55 1028 30.36 857 25.31 19.4 66.9 36 3.9 39
09:00 1028 30.36 857 25.31 19.7 67.4 34 3.6 38.5
09:05 1028 30.36 857 25.31 19.5 67.1 35 3.9 39.1
09:10 1028 30.36 857 25.31 19.9 67.8 36 4.5 40.1
09:15 1028 30.36 857 25.31 20 68.1 37 5 40.9
09:20 1028 30.36 857 25.31 19.9 67.8 37 4.9 40.8
09:25 1028 30.36 857 25.31 20.2 68.4 35 4.3 39.7
09:30 1028 30.36 857 25.31 20.4 68.6 35 4.4 40
09:35 1028 30.36 857 25.31 20.7 69.2 33 4.2 39.5
09:40 1027 30.33 857 25.31 21 69.9 36 5.5 41.9
09:45 1027 30.33 857 25.31 20.3 68.5 39 6 42.7
09:50 1028 30.36 857 25.31 20.6 69 35 4.6 40.2
09:55 1027 30.33 857 25.31 20.8 69.4 36 5.4 41.7
10:00 1027 30.33 857 25.31 21 69.7 35 5 41.1
10:05 1027 30.33 857 25.31 21 69.8 36 5.6 42.2
10:10 1027 30.33 857 25.31 20.5 69 37 5.5 41.9
10:15 1027 30.33 857 25.31 20.9 69.6 35 4.9 40.9
10:20 1027 30.33 857 25.31 21.9 71.4 34 5.5 41.8
10:25 1027 30.33 856 25.28 21.7 71.1 35 5.6 42.1
10:30 1027 30.33 856 25.28 21.4 70.6 33 4.7 40.5
10:35 1027 30.33 856 25.28 22.5 72.4 32 5.1 41.2
10:40 1027 30.33 856 25.28 22.3 72.1 33 5.4 41.7
10:45 1027 30.33 856 25.28 22.9 73.3 31 5.3 41.5
10:50 1027 30.33 856 25.28 22.8 73 33 5.8 42.5
10:55 1027 30.33 856 25.28 22.1 71.8 32 5.1 41.1
11:00 1027 30.33 856 25.28 22.4 72.3 34 5.9 42.5
11:05 1027 30.33 856 25.28 21.9 71.5 33 5.1 41.2
11:10 1027 30.33 856 25.28 22.6 72.7 31 5 40.9
11:15 1027 30.33 856 25.28 23.8 74.8 31 5.6 42.1
11:20 1027 30.33 856 25.28 23 73.3 32 5.7 42.2
11:25 1027 30.33 856 25.28 23.3 73.9 31 5.4 41.8
11:30 1027 30.33 856 25.28 24.5 76.2 30 5.9 42.5
11:35 1027 30.33 856 25.28 23.8 74.8 30 5.3 41.6
11:40 1027 30.33 856 25.28 24.8 76.7 29 5.8 42.5
11:45 1027 30.33 856 25.28 24.3 75.7 30 5.8 42.5
11:50 1027 30.33 856 25.28 23.8 74.8 31 5.8 42.4
11:55 1027 30.33 856 25.28 24.6 76.3 29 5.6 42.1
12:00 1027 30.33 856 25.28 25.6 78.1 29 6.4 43.5
12:05 1027 30.33 856 25.28 25.7 78.3 28 6.3 43.4
12:10 1027 30.33 856 25.28 26 78.8 28 6.3 43.4
12:15 1027 30.33 856 25.28 25.1 77.3 28 5.8 42.4
12:20 1027 30.33 856 25.28 26 78.8 28 6.3 43.4
12:25 1027 30.33 856 25.28 25.8 78.4 28 5.9 42.7
12:30 1027 30.33 856 25.28 25.5 77.9 28 5.8 42.4
12:35 1027 30.33 856 25.28 25.5 78 28 5.7 42.3
12:40 1027 30.33 856 25.28 25.9 78.7 27 5.9 42.7
12:45 1027 30.33 856 25.28 25.8 78.4 28 6.2 43.2
12:50 1026 30.3 856 25.28 25.8 78.4 26 5.2 41.4
12:55 1026 30.3 856 25.28 26.5 79.7 26 5.6 42
13:00 1026 30.3 856 25.28 26.7 80.1 25 5.3 41.5
13:05 1026 30.3 856 25.28 27.2 81 25 5.7 42.2
13:10 1026 30.3 856 25.28 25.9 78.7 26 5.1 41.1
13:15 1026 30.3 856 25.28 26 78.9 25 4.8 40.7
13:20 1026 30.3 856 25.28 26.7 80.1 26 5.7 42.3
13:25 1026 30.3 855 25.25 27 80.6 25 5.7 42.3
13:30 1026 30.3 855 25.25 27.6 81.7 24 5.4 41.7
13:35 1026 30.3 855 25.25 27.4 81.3 21 3.5 38.4
13:40 1026 30.3 855 25.25 27.4 81.4 23 4.6 40.3
13:45 1026 30.3 855 25.25 27.2 80.9 21 3.2 37.8
13:50 1026 30.3 855 25.25 27.3 81.1 21 3.6 38.4
13:55 1026 30.3 855 25.25 27.4 81.4 18 1.6 34.8
14:00 1026 30.3 855 25.25 28.1 82.5 18 2 35.6
14:05 1026 30.3 855 25.25 27.9 82.3 17 0.7 33.3
14:10 1026 30.3 855 25.25 28 82.4 17 1.1 34
14:15 1026 30.3 855 25.25 27.8 82.1 16 0.2 32.3
14:20 1026 30.3 855 25.25 29.1 84.4 15 0.1 32.2
14:25 1026 30.3 855 25.25 29 84.2 15 -0.3 31.4
14:30 1026 30.3 855 25.25 29 84.1 15 -0 32
14:35 1026 30.3 855 25.25 29.2 84.5 14 -0.4 31.3
14:40 1026 30.3 855 25.25 28.4 83 16 0.7 33.3
14:45 1026 30.3 855 25.25 27.7 81.9 17 0.8 33.4
14:50 1026 30.3 855 25.25 28.1 82.6 15 -0.5 31
14:55 1026 30.3 855 25.25 29 84.1 15 -0.4 31.3
15:00 1026 30.3 855 25.25 29 84.2 14 -0.7 30.8
15:05 1026 30.3 855 25.25 29.1 84.4 14 -0.6 30.9
15:10 1026 30.3 855 25.25 29.2 84.5 14 -0.6 31
15:15 1025 30.27 855 25.25 29.1 84.5 14 -0.3 31.4
15:20 1025 30.27 855 25.25 29 84.3 14 -0.5 31.1
15:25 1025 30.27 855 25.25 28.9 83.9 14 -0.9 30.4
15:30 1025 30.27 855 25.25 29.1 84.3 14 -0.9 30.4
15:35 1025 30.27 855 25.25 29.2 84.6 14 -0.5 31
15:40 1025 30.27 855 25.25 28.5 83.3 14 -1.5 29.4
15:45 1025 30.27 855 25.25 28.6 83.4 14 -1.3 29.6
15:50 1025 30.27 854 25.22 28.7 83.6 14 -1.1 29.9
15:55 1025 30.27 854 25.22 29 84.2 14 -0.8 30.5
16:00 1025 30.27 854 25.22 28.3 83 14 -1.6 29.2
16:05 1025 30.27 854 25.22 28.7 83.6 14 -0.9 30.5
16:10 1025 30.27 854 25.22 29.3 84.7 13 -1.6 29.2
16:15 1025 30.27 854 25.22 29.1 84.4 14 -0.8 30.5
16:20 1025 30.27 854 25.22 28.5 83.2 14 -1.7 28.9
16:25 1025 30.27 854 25.22 28.6 83.5 14 -1.4 29.4
16:30 1025 30.27 854 25.22 29.1 84.4 14 -1.2 29.8
16:35 1025 30.27 854 25.22 29.2 84.6 12 -2.6 27.2
16:40 1025 30.27 854 25.22 29 84.1 11 -3.8 25.2
16:45 1025 30.27 854 25.22 28.3 82.9 12 -3.7 25.4
16:50 1025 30.27 854 25.22 28.9 84 12 -3.5 25.7
16:55 1025 30.27 854 25.22 29.5 85.1 11 -3.3 26
17:00 1025 30.27 854 25.22 29.7 85.5 12 -2.9 26.7
17:05 1025 30.27 854 25.22 29.1 84.5 12 -3.1 26.4
17:10 1025 30.27 854 25.22 28.5 83.3 12 -3.5 25.6
17:15 1025 30.27 854 25.22 29.2 84.6 12 -2.6 27.3
17:20 1025 30.27 854 25.22 28.6 83.4 12 -3.6 25.5
17:25 1025 30.27 854 25.22 28.5 83.2 12 -3.5 25.7
17:30 1025 30.27 854 25.22 28.5 83.4 12 -3.3 26
17:35 1025 30.27 854 25.22 28.3 82.9 12 -3 26.6
17:40 1025 30.27 854 25.22 28.7 83.7 11 -4.3 24.3
17:45 1025 30.27 854 25.22 29.6 85.2 11 -3.8 25.2
17:50 1025 30.27 854 25.22 29.5 85.2 12 -3.1 26.5
17:55 1024 30.24 854 25.22 29 84.3 12 -3.4 25.9
18:00 1024 30.24 854 25.22 28.5 83.3 12 -3.5 25.6
18:05 1024 30.24 854 25.22 28.5 83.2 11 -4 24.8
18:10 1024 30.24 854 25.22 28.4 83.1 12 -3.5 25.7
18:15 1024 30.24 854 25.22 28.3 83 12 -3.1 26.4
18:20 1024 30.24 854 25.22 28.4 83.1 13 -2.8 27
18:25 1024 30.24 854 25.22 28.6 83.5 12 -3.1 26.5
18:30 1024 30.24 854 25.22 28.3 83 13 -2.3 27.9
18:35 1024 30.24 853 25.19 28 82.4 14 -2.2 28.1
18:40 1024 30.24 853 25.19 27.9 82.2 13 -2.5 27.4
18:45 1024 30.24 853 25.19 27.8 82 14 -2.3 27.8
18:50 1024 30.24 853 25.19 27.6 81.8 13 -3.2 26.3
18:55 1024 30.24 853 25.19 27.5 81.5 14 -2.2 28
19:00 1024 30.24 853 25.19 27.4 81.2 18 1.1 34
19:05 1024 30.24 853 25.19 26.9 80.4 20 2.6 36.6
19:10 1024 30.24 854 25.22 26.5 79.7 22 3.1 37.5
19:15 1024 30.24 854 25.22 26.3 79.3 21 2.8 37.1
19:20 1024 30.24 854 25.22 26.1 78.9 22 3 37.4
19:25 1024 30.24 854 25.22 25.9 78.6 23 3.3 37.9
19:30 1024 30.24 854 25.22 25.7 78.3 23 3.2 37.8
19:35 1024 30.24 854 25.22 25.6 78 24 3.5 38.4
19:40 1024 30.24 854 25.22 25.3 77.5 24 3.7 38.7
19:45 1024 30.24 854 25.22 25.1 77.1 24 3.6 38.5
19:50 1024 30.24 854 25.22 24.8 76.7 26 4.1 39.3
19:55 1024 30.24 854 25.22 24.5 76.2 26 4 39.3
20:00 1024 30.24 854 25.22 24.3 75.8 26 3.6 38.5
20:05 1024 30.24 854 25.22 24.2 75.6 25 3.2 37.8
20:10 1025 30.27 854 25.22 24.1 75.5 25 3.4 38.1
20:15 1025 30.27 854 25.22 23.9 74.9 26 3.5 38.3
20:20 1025 30.27 854 25.22 23.7 74.6 26 3.4 38.1
20:25 1025 30.27 854 25.22 23.6 74.5 26 3.4 38.1
20:30 1025 30.27 854 25.22 23.5 74.3 26 3.4 38
20:35 1025 30.27 854 25.22 23.4 74 27 3.3 38
20:40 1025 30.27 854 25.22 23.3 73.9 27 3.4 38.2
20:45 1025 30.27 854 25.22 23.1 73.6 27 3.4 38.1
20:50 1025 30.27 855 25.25 23 73.5 27 3.3 38
20:55 1025 30.27 855 25.25 23 73.4 28 3.5 38.3
21:00 1025 30.27 855 25.25 22.9 73.2 28 3.5 38.3
21:05 1025 30.27 854 25.22 23 73.3 27 3.4 38.1
21:10 1025 30.27 854 25.22 23.1 73.6 27 3.5 38.2
21:15 1025 30.27 854 25.22 23.2 73.8 28 3.8 38.8
21:20 1025 30.27 855 25.25 23.1 73.6 28 3.9 39
21:25 1025 30.27 855 25.25 23.2 73.8 28 4.1 39.3
21:30 1025 30.27 854 25.22 23.2 73.8 29 4.2 39.6
21:35 1025 30.27 854 25.22 23.2 73.8 29 4.3 39.7
21:40 1025 30.27 854 25.22 23.1 73.6 29 4.4 40
21:45 1025 30.27 854 25.22 23 73.4 30 4.6 40.2
21:50 1025 30.27 854 25.22 22.8 73 30 4.6 40.2
21:55 1025 30.27 854 25.22 22.7 72.8 31 4.7 40.5
22:00 1025 30.27 854 25.22 22.5 72.5 31 4.7 40.5
22:05 1025 30.27 854 25.22 22.5 72.4 31 4.7 40.4
22:10 1025 30.27 854 25.22 22.6 72.6 31 4.8 40.6
22:15 1025 30.27 854 25.22 22.6 72.7 31 4.8 40.6
22:20 1025 30.27 854 25.22 22.6 72.7 31 4.7 40.5
22:25 1025 30.27 854 25.22 22.5 72.6 31 4.8 40.6
22:30 1025 30.27 854 25.22 22.4 72.3 31 4.8 40.6
22:35 1025 30.27 854 25.22 22.4 72.3 31 4.8 40.6
22:40 1025 30.27 854 25.22 22.3 72.2 31 4.7 40.5
22:45 1025 30.27 854 25.22 22.2 71.9 32 4.7 40.5
22:50 1025 30.27 854 25.22 22 71.7 32 4.6 40.4
22:55 1025 30.27 854 25.22 21.9 71.5 31 4.4 40
23:00 1025 30.27 854 25.22 21.9 71.5 32 4.6 40.2
23:05 1025 30.27 854 25.22 21.8 71.2 32 4.5 40.2
23:10 1025 30.27 854 25.22 21.6 71 32 4.4 39.9
23:15 1024 30.24 853 25.19 21.6 70.8 32 4.3 39.8
23:20 1024 30.24 853 25.19 21.4 70.6 33 4.5 40.2
23:25 1024 30.24 854 25.22 21.2 70.1 33 4.5 40.1
23:30 1024 30.24 853 25.19 21.1 69.9 33 4.4 39.9
23:35 1024 30.24 853 25.19 20.9 69.7 34 4.5 40.1
23:40 1024 30.24 854 25.22 20.8 69.5 34 4.5 40.1
23:45 1025 30.27 854 25.22 20.7 69.3 34 4.6 40.2
23:50 1025 30.27 854 25.22 20.7 69.3 34 4.6 40.2
23:55 1025 30.27 854 25.22 20.6 69.1 35 4.9 40.9
24:00 1025 30.27 854 25.22 20.5 68.8 35 4.7 40.5